BGW weather

Baghdad International Airport
Baghdad, Baghdad Governorate, Iraq

Public forecast

Using degrees Celsius for public forecast. Weather courtesy of forecast.io.

Current aviation weather report (METAR) for Baghdad International Airport

Retrieved 2019/10/17 21:00 UTC (2 hours ago):

ORBI 172100Z 23005KT 210V300 9000 -RA OVC035 28/13 Q1015 NOSIG

Aviation forecast (TAF) for Baghdad International Airport

Retrieved 2019/10/17 18:33 UTC (4 hours ago):

TAF TAF ORBI 171700Z 1718/1818 33008KT 8000 BKN040 TEMPO 1720/1803 -SHRA BKN030 BECMG 1806/1808 SCT040